createdAt,value
2023-03-08T00:00:43.208Z,993.45
2023-03-08T00:01:43.187Z,993.46
2023-03-08T00:02:43.179Z,993.45
2023-03-08T00:03:43.240Z,993.46
2023-03-08T00:04:43.172Z,993.54
2023-03-08T00:05:43.159Z,993.56
2023-03-08T00:06:43.130Z,993.55
2023-03-08T00:07:43.107Z,993.59
2023-03-08T00:08:43.169Z,993.61
2023-03-08T00:09:43.082Z,993.60
2023-03-08T00:10:43.064Z,993.61
2023-03-08T00:11:43.047Z,993.67
2023-03-08T00:12:43.043Z,993.65
2023-03-08T00:13:43.020Z,993.64
2023-03-08T00:14:43.009Z,993.64
2023-03-08T00:15:43.013Z,993.67
2023-03-08T00:16:42.974Z,993.69
2023-03-08T00:17:42.973Z,993.68
2023-03-08T00:18:42.954Z,993.72
2023-03-08T00:19:42.936Z,993.70
2023-03-08T00:20:42.928Z,993.71
2023-03-08T00:21:42.912Z,993.72
2023-03-08T00:22:42.892Z,993.76
2023-03-08T00:23:42.894Z,993.73
2023-03-08T00:24:42.867Z,993.73
2023-03-08T00:25:42.854Z,993.78
2023-03-08T00:26:42.839Z,993.76
2023-03-08T00:27:42.827Z,993.78
2023-03-08T00:28:42.844Z,993.78
2023-03-08T00:29:42.924Z,993.79
2023-03-08T00:30:42.799Z,993.79
2023-03-08T00:31:42.840Z,993.82
2023-03-08T00:32:42.811Z,993.82
2023-03-08T00:33:42.751Z,993.86
2023-03-08T00:34:42.731Z,993.85
2023-03-08T00:35:42.735Z,993.89
2023-03-08T00:36:42.701Z,993.90
2023-03-08T00:37:42.693Z,993.90
2023-03-08T00:38:42.678Z,993.90
2023-03-08T00:39:42.662Z,993.89
2023-03-08T00:40:42.656Z,993.91
2023-03-08T00:41:42.633Z,993.92
2023-03-08T00:42:42.622Z,993.91
2023-03-08T00:43:42.614Z,993.96
2023-03-08T00:44:42.593Z,993.94
2023-03-08T00:45:42.576Z,993.97
2023-03-08T00:46:42.623Z,993.99
2023-03-08T00:47:42.551Z,993.99
2023-03-08T00:48:42.536Z,993.99
2023-03-08T00:49:42.522Z,994.03
2023-03-08T00:50:42.504Z,994.01
2023-03-08T00:51:42.493Z,994.04
2023-03-08T00:52:42.477Z,994.01
2023-03-08T00:53:42.478Z,994.04
2023-03-08T00:54:42.488Z,994.02
2023-03-08T00:55:42.438Z,994.05
2023-03-08T00:56:42.422Z,994.01
2023-03-08T00:57:42.416Z,994.05
2023-03-08T00:58:42.419Z,994.05
2023-03-08T00:59:42.382Z,994.04
2023-03-08T01:00:42.443Z,994.01
2023-03-08T01:01:42.364Z,994.04
2023-03-08T01:02:42.343Z,994.04
2023-03-08T01:03:42.320Z,994.04
2023-03-08T01:04:42.308Z,994.04
2023-03-08T01:05:42.320Z,994.06
2023-03-08T01:06:42.281Z,994.04
2023-03-08T01:07:42.264Z,994.06
2023-03-08T01:08:42.287Z,994.07
2023-03-08T01:09:42.236Z,994.06
2023-03-08T01:10:42.222Z,994.02
2023-03-08T01:11:42.235Z,994.04
2023-03-08T01:12:42.192Z,994.03
2023-03-08T01:13:42.175Z,994.06
2023-03-08T01:14:42.169Z,994.05
2023-03-08T01:15:42.195Z,994.07
2023-03-08T01:16:42.139Z,994.08
2023-03-08T01:17:42.125Z,994.09
2023-03-08T01:18:42.106Z,994.08
2023-03-08T01:19:42.091Z,994.07
2023-03-08T01:20:42.079Z,994.06
2023-03-08T01:21:42.067Z,994.09
2023-03-08T01:22:42.051Z,994.10
2023-03-08T01:23:42.669Z,994.08
2023-03-08T01:24:42.016Z,994.09
2023-03-08T01:25:42.005Z,994.12
2023-03-08T01:26:41.989Z,994.08
2023-03-08T01:27:41.976Z,994.09
2023-03-08T01:28:41.985Z,994.09
2023-03-08T01:29:41.947Z,994.13
2023-03-08T01:30:41.938Z,994.10
2023-03-08T01:31:41.919Z,994.13
2023-03-08T01:32:41.911Z,994.11
2023-03-08T01:33:41.890Z,994.10
2023-03-08T01:34:41.878Z,994.11
2023-03-08T01:35:41.889Z,994.14
2023-03-08T01:36:41.847Z,994.12
2023-03-08T01:37:41.836Z,994.11
2023-03-08T01:38:41.819Z,994.12
2023-03-08T01:39:41.802Z,994.18
2023-03-08T01:40:41.787Z,994.15
2023-03-08T01:41:41.777Z,994.16
2023-03-08T01:42:41.760Z,994.15
2023-03-08T01:43:41.745Z,994.21
2023-03-08T01:44:41.729Z,994.21
2023-03-08T01:45:41.717Z,994.20
2023-03-08T01:46:41.698Z,994.21
2023-03-08T01:47:41.685Z,994.23
2023-03-08T01:48:41.694Z,994.22
2023-03-08T01:49:41.659Z,994.23
2023-03-08T01:50:41.639Z,994.22
2023-03-08T01:51:41.628Z,994.25
2023-03-08T01:52:41.615Z,994.24
2023-03-08T01:53:41.608Z,994.27
2023-03-08T01:54:41.584Z,994.31
2023-03-08T01:55:41.570Z,994.26
2023-03-08T01:56:41.556Z,994.25
2023-03-08T01:57:41.545Z,994.28
2023-03-08T01:58:41.526Z,994.29
2023-03-08T01:59:41.509Z,994.29
2023-03-08T02:00:41.495Z,994.25
2023-03-08T02:01:41.484Z,994.26
2023-03-08T02:02:41.469Z,994.28
2023-03-08T02:03:41.490Z,994.28
2023-03-08T02:04:41.444Z,994.25
2023-03-08T02:05:41.420Z,994.28
2023-03-08T02:06:41.414Z,994.27
2023-03-08T02:07:41.398Z,994.29
2023-03-08T02:08:41.383Z,994.29
2023-03-08T02:09:41.367Z,994.29
2023-03-08T02:10:41.354Z,994.31
2023-03-08T02:11:41.349Z,994.35
2023-03-08T02:12:41.327Z,994.33
2023-03-08T02:13:41.312Z,994.31
2023-03-08T02:14:41.299Z,994.30
2023-03-08T02:15:41.285Z,994.32
2023-03-08T02:16:41.273Z,994.31
2023-03-08T02:17:41.253Z,994.30
2023-03-08T02:18:41.242Z,994.32
2023-03-08T02:19:41.230Z,994.30
2023-03-08T02:20:41.231Z,994.28
2023-03-08T02:21:41.201Z,994.28
2023-03-08T02:22:41.187Z,994.30
2023-03-08T02:23:41.206Z,994.29
2023-03-08T02:24:41.152Z,994.25
2023-03-08T02:25:41.140Z,994.30
2023-03-08T02:26:41.127Z,994.28
2023-03-08T02:27:41.113Z,994.32
2023-03-08T02:28:41.153Z,994.29
2023-03-08T02:29:41.084Z,994.28
2023-03-08T02:30:41.068Z,994.31
2023-03-08T02:31:41.060Z,994.28
2023-03-08T02:32:41.140Z,994.29
2023-03-08T02:33:41.041Z,994.29
2023-03-08T02:34:41.015Z,994.29
2023-03-08T02:35:41.003Z,994.30
2023-03-08T02:36:40.983Z,994.32
2023-03-08T02:37:40.971Z,994.36
2023-03-08T02:38:40.960Z,994.32
2023-03-08T02:39:40.935Z,994.36
2023-03-08T02:40:40.925Z,994.37
2023-03-08T02:41:40.916Z,994.36
2023-03-08T02:42:40.918Z,994.38
2023-03-08T02:43:40.886Z,994.39
2023-03-08T02:44:40.872Z,994.36
2023-03-08T02:45:40.865Z,994.37
2023-03-08T02:46:40.842Z,994.42
2023-03-08T02:47:40.832Z,994.38
2023-03-08T02:48:40.810Z,994.43
2023-03-08T02:49:40.792Z,994.47
2023-03-08T02:50:40.874Z,994.44
2023-03-08T02:51:40.766Z,994.44
2023-03-08T02:52:40.751Z,994.45
2023-03-08T02:53:40.757Z,994.43
2023-03-08T02:54:40.718Z,994.45
2023-03-08T02:55:40.705Z,994.45
2023-03-08T02:56:40.693Z,994.42
2023-03-08T02:57:40.727Z,994.44
2023-03-08T02:58:40.661Z,994.42
2023-03-08T02:59:40.658Z,994.39
2023-03-08T03:00:40.638Z,994.44
2023-03-08T03:01:40.676Z,994.41
2023-03-08T03:02:40.603Z,994.41
2023-03-08T03:03:40.588Z,994.42
2023-03-08T03:04:40.593Z,994.40
2023-03-08T03:05:40.563Z,994.44
2023-03-08T03:06:40.545Z,994.38
2023-03-08T03:07:40.535Z,994.41
2023-03-08T03:08:40.522Z,994.41
2023-03-08T03:09:40.504Z,994.40
2023-03-08T03:10:40.486Z,994.41
2023-03-08T03:11:40.478Z,994.44
2023-03-08T03:12:40.458Z,994.41
2023-03-08T03:13:40.443Z,994.44
2023-03-08T03:14:40.430Z,994.43
2023-03-08T03:15:40.451Z,994.46
2023-03-08T03:16:40.401Z,994.46
2023-03-08T03:17:40.383Z,994.52
2023-03-08T03:18:40.368Z,994.50
2023-03-08T03:19:40.350Z,994.50
2023-03-08T03:20:40.341Z,994.48
2023-03-08T03:21:40.322Z,994.49
2023-03-08T03:22:40.328Z,994.52
2023-03-08T03:23:40.309Z,994.46
2023-03-08T03:24:40.280Z,994.48
2023-03-08T03:25:40.266Z,994.50
2023-03-08T03:26:40.253Z,994.46
2023-03-08T03:27:40.240Z,994.48
2023-03-08T03:28:40.224Z,994.49
2023-03-08T03:29:40.220Z,994.52
2023-03-08T03:30:40.190Z,994.52
2023-03-08T03:31:40.181Z,994.53
2023-03-08T03:32:40.211Z,994.54
2023-03-08T03:33:40.151Z,994.60
2023-03-08T03:34:40.145Z,994.57
2023-03-08T03:35:40.138Z,994.60
2023-03-08T03:36:40.113Z,994.62
2023-03-08T03:37:40.090Z,994.63
2023-03-08T03:38:40.082Z,994.66
2023-03-08T03:39:40.065Z,994.66
2023-03-08T03:40:40.048Z,994.71
2023-03-08T03:41:40.151Z,994.70
2023-03-08T03:42:40.026Z,994.75
2023-03-08T03:43:40.007Z,994.78
2023-03-08T03:44:39.995Z,994.77
2023-03-08T03:45:39.976Z,994.75
2023-03-08T03:46:40.067Z,994.78
2023-03-08T03:47:39.958Z,994.78
2023-03-08T03:48:39.941Z,994.82
2023-03-08T03:49:39.922Z,994.79
2023-03-08T03:50:39.908Z,994.80
2023-03-08T03:51:39.896Z,994.83
2023-03-08T03:52:39.881Z,994.76
2023-03-08T03:53:39.874Z,994.84
2023-03-08T03:54:39.858Z,994.84
2023-03-08T03:55:39.839Z,994.84
2023-03-08T03:56:39.834Z,994.84
2023-03-08T03:57:39.813Z,994.87
2023-03-08T03:58:39.799Z,994.88
2023-03-08T03:59:39.800Z,994.91
2023-03-08T04:00:39.771Z,994.90
2023-03-08T04:01:39.761Z,994.93
2023-03-08T04:02:39.775Z,994.95
2023-03-08T04:03:39.804Z,994.95
2023-03-08T04:04:39.716Z,994.93
2023-03-08T04:05:39.699Z,994.95
2023-03-08T04:06:39.684Z,994.98
2023-03-08T04:07:39.671Z,994.95
2023-03-08T04:08:39.660Z,994.96
2023-03-08T04:09:39.642Z,994.94
2023-03-08T04:10:39.624Z,995.00
2023-03-08T04:11:39.620Z,994.97
2023-03-08T04:12:39.602Z,994.98
2023-03-08T04:13:39.584Z,994.98
2023-03-08T04:14:39.619Z,994.98
2023-03-08T04:15:39.556Z,995.02
2023-03-08T04:16:39.552Z,995.04
2023-03-08T04:17:39.527Z,995.06
2023-03-08T04:18:39.516Z,995.04
2023-03-08T04:19:39.498Z,995.01
2023-03-08T04:20:39.488Z,995.02
2023-03-08T04:21:39.471Z,995.01
2023-03-08T04:22:39.450Z,995.03
2023-03-08T04:23:39.461Z,995.01
2023-03-08T04:24:39.445Z,995.02
2023-03-08T04:25:39.421Z,995.01
2023-03-08T04:26:39.396Z,995.02
2023-03-08T04:27:39.383Z,995.03
2023-03-08T04:28:39.381Z,995.04
2023-03-08T04:29:39.353Z,995.00
2023-03-08T04:30:39.340Z,995.01
2023-03-08T04:31:39.342Z,995.02
2023-03-08T04:32:39.365Z,995.04
2023-03-08T04:33:39.300Z,995.01
2023-03-08T04:34:39.285Z,995.02
2023-03-08T04:35:39.365Z,995.02
2023-03-08T04:36:39.253Z,995.03
2023-03-08T04:37:39.239Z,995.06
2023-03-08T04:38:39.235Z,995.05
2023-03-08T04:39:39.211Z,995.03
2023-03-08T04:40:39.198Z,995.04
2023-03-08T04:41:39.186Z,995.02
2023-03-08T04:42:39.169Z,995.06
2023-03-08T04:43:39.160Z,995.04
2023-03-08T04:44:39.153Z,995.05
2023-03-08T04:45:39.128Z,995.00
2023-03-08T04:46:39.122Z,994.99
2023-03-08T04:47:39.098Z,994.97
2023-03-08T04:48:39.098Z,994.94
2023-03-08T04:49:39.073Z,994.91
2023-03-08T04:50:39.056Z,994.90
2023-03-08T04:51:39.044Z,994.90
2023-03-08T04:52:39.028Z,994.91
2023-03-08T04:53:39.024Z,994.91
2023-03-08T04:54:39.005Z,994.89
2023-03-08T04:55:38.993Z,994.91
2023-03-08T04:56:38.971Z,994.90
2023-03-08T04:57:38.957Z,994.91
2023-03-08T04:58:38.961Z,994.90
2023-03-08T04:59:38.928Z,994.89
2023-03-08T05:00:38.914Z,994.85
2023-03-08T05:01:38.903Z,994.87
2023-03-08T05:02:39.008Z,994.87
2023-03-08T05:03:38.874Z,994.89
2023-03-08T05:04:38.884Z,994.86
2023-03-08T05:05:38.843Z,994.89
2023-03-08T05:06:38.829Z,994.90
2023-03-08T05:07:38.821Z,994.86
2023-03-08T05:08:38.802Z,994.90
2023-03-08T05:09:38.791Z,994.88
2023-03-08T05:10:38.786Z,994.84
2023-03-08T05:11:38.763Z,994.87
2023-03-08T05:12:38.744Z,994.86
2023-03-08T05:13:38.732Z,994.84
2023-03-08T05:14:38.737Z,994.83
2023-03-08T05:15:38.704Z,994.89
2023-03-08T05:16:38.743Z,994.89
2023-03-08T05:17:38.748Z,994.88
2023-03-08T05:18:38.658Z,994.92
2023-03-08T05:19:38.644Z,994.91
2023-03-08T05:20:38.630Z,994.92
2023-03-08T05:21:38.624Z,994.90
2023-03-08T05:22:55.095Z,994.88
2023-03-08T05:23:38.586Z,994.92
2023-03-08T05:24:38.574Z,994.90
2023-03-08T05:25:38.560Z,994.95
2023-03-08T05:26:38.551Z,994.94
2023-03-08T05:27:38.529Z,994.93
2023-03-08T05:28:38.514Z,994.94
2023-03-08T05:29:38.501Z,994.95
2023-03-08T05:30:38.486Z,995.00
2023-03-08T05:31:38.514Z,994.98
2023-03-08T05:32:38.505Z,994.99
2023-03-08T05:33:38.472Z,995.00
2023-03-08T05:34:38.428Z,995.01
2023-03-08T05:35:38.430Z,995.00
2023-03-08T05:36:38.401Z,995.02
2023-03-08T05:37:38.384Z,995.03
2023-03-08T05:38:38.388Z,995.03
2023-03-08T05:39:38.357Z,995.01
2023-03-08T05:40:38.344Z,995.04
2023-03-08T05:41:38.340Z,995.05
2023-03-08T05:42:38.312Z,995.09
2023-03-08T05:43:38.301Z,995.05
2023-03-08T05:44:38.288Z,995.05
2023-03-08T05:45:38.446Z,995.08
2023-03-08T05:46:38.302Z,995.09
2023-03-08T05:47:38.243Z,995.13
2023-03-08T05:48:38.239Z,995.09
2023-03-08T05:49:38.221Z,995.13
2023-03-08T05:50:38.197Z,995.11
2023-03-08T05:51:38.202Z,995.10
2023-03-08T05:52:38.178Z,995.12
2023-03-08T05:53:38.177Z,995.10
2023-03-08T05:54:38.162Z,995.14
2023-03-08T05:55:38.136Z,995.12
2023-03-08T05:56:38.114Z,995.16
2023-03-08T05:57:38.100Z,995.18
2023-03-08T05:58:38.083Z,995.15
2023-03-08T05:59:38.076Z,995.18
2023-03-08T06:00:38.057Z,995.18
2023-03-08T06:01:38.045Z,995.18
2023-03-08T06:02:38.032Z,995.15
2023-03-08T06:03:38.070Z,995.15
2023-03-08T06:04:38.002Z,995.12
2023-03-08T06:05:38.079Z,995.17
2023-03-08T06:06:37.986Z,995.16
2023-03-08T06:07:37.951Z,995.21
2023-03-08T06:08:37.980Z,995.19
2023-03-08T06:09:37.930Z,995.18
2023-03-08T06:10:37.916Z,995.17
2023-03-08T06:11:37.900Z,995.21
2023-03-08T06:12:37.885Z,995.20
2023-03-08T06:13:37.874Z,995.17
2023-03-08T06:14:37.859Z,995.19
2023-03-08T06:15:37.842Z,995.20
2023-03-08T06:16:37.995Z,995.21
2023-03-08T06:17:37.816Z,995.19
2023-03-08T06:18:37.806Z,995.23
2023-03-08T06:19:37.793Z,995.22
2023-03-08T06:20:37.771Z,995.22
2023-03-08T06:21:37.756Z,995.20
2023-03-08T06:22:37.742Z,995.19
2023-03-08T06:23:37.749Z,995.22
2023-03-08T06:24:37.714Z,995.26
2023-03-08T06:25:37.700Z,995.30
2023-03-08T06:26:37.689Z,995.30
2023-03-08T06:27:37.674Z,995.24
2023-03-08T06:28:37.660Z,995.27
2023-03-08T06:29:37.644Z,995.23
2023-03-08T06:30:37.671Z,995.26
2023-03-08T06:31:37.620Z,995.30
2023-03-08T06:32:37.848Z,995.33
2023-03-08T06:33:37.598Z,995.34
2023-03-08T06:34:37.577Z,995.34
2023-03-08T06:35:37.588Z,995.37
2023-03-08T06:36:37.560Z,995.38
2023-03-08T06:37:37.607Z,995.39
2023-03-08T06:38:37.534Z,995.43
2023-03-08T06:39:37.515Z,995.47
2023-03-08T06:40:37.497Z,995.47
2023-03-08T06:41:37.490Z,995.45
2023-03-08T06:42:41.641Z,995.46
2023-03-08T06:43:37.461Z,995.48
2023-03-08T06:44:39.887Z,995.50
2023-03-08T06:45:37.434Z,995.48
2023-03-08T06:46:37.414Z,995.45
2023-03-08T06:47:37.626Z,995.47
2023-03-08T06:48:37.390Z,995.47
2023-03-08T06:49:37.375Z,995.46
2023-03-08T06:50:37.362Z,995.46
2023-03-08T06:51:37.349Z,995.46
2023-03-08T06:52:37.340Z,995.43
2023-03-08T06:53:37.333Z,995.39
2023-03-08T06:54:37.311Z,995.32
2023-03-08T06:55:37.297Z,995.35
2023-03-08T06:56:37.282Z,995.35
2023-03-08T06:57:37.283Z,995.37
2023-03-08T06:58:37.291Z,995.35
2023-03-08T06:59:37.248Z,995.35
2023-03-08T07:00:37.233Z,995.33
2023-03-08T07:01:37.254Z,995.33
2023-03-08T07:02:37.209Z,995.33
2023-03-08T07:03:37.192Z,995.29
2023-03-08T07:04:37.231Z,995.29
2023-03-08T07:05:37.165Z,995.26
2023-03-08T07:06:37.150Z,995.23
2023-03-08T07:07:37.135Z,995.23
2023-03-08T07:08:37.126Z,995.23
2023-03-08T07:09:37.110Z,995.23
2023-03-08T07:10:37.098Z,995.20
2023-03-08T07:11:37.080Z,995.23
2023-03-08T07:12:37.091Z,995.20
2023-03-08T07:13:37.056Z,995.25
2023-03-08T07:14:37.053Z,995.21
2023-03-08T07:15:37.074Z,995.21
2023-03-08T07:16:37.018Z,995.23
2023-03-08T07:17:37.002Z,995.23
2023-03-08T07:18:36.992Z,995.24
2023-03-08T07:19:36.990Z,995.23
2023-03-08T07:20:36.964Z,995.23
2023-03-08T07:21:36.951Z,995.21
2023-03-08T07:22:36.939Z,995.21
2023-03-08T07:23:36.929Z,995.21
2023-03-08T07:24:36.914Z,995.20
2023-03-08T07:25:36.951Z,995.19
2023-03-08T07:26:36.882Z,995.19
2023-03-08T07:27:36.881Z,995.22
2023-03-08T07:28:36.880Z,995.21
2023-03-08T07:29:36.845Z,995.22
2023-03-08T07:30:36.837Z,995.20
2023-03-08T07:31:36.825Z,995.22
2023-03-08T07:32:36.904Z,995.24
2023-03-08T07:33:36.795Z,995.27
2023-03-08T07:34:36.784Z,995.31
2023-03-08T07:35:39.002Z,995.30
2023-03-08T07:36:36.795Z,995.27
2023-03-08T07:37:36.746Z,995.20
2023-03-08T07:38:36.728Z,995.17
2023-03-08T07:39:36.718Z,995.19
2023-03-08T07:40:36.710Z,995.19
2023-03-08T07:41:36.704Z,995.21
2023-03-08T07:42:36.678Z,995.20
2023-03-08T07:43:36.672Z,995.22
2023-03-08T07:44:36.651Z,995.17
2023-03-08T07:45:36.643Z,995.23
2023-03-08T07:46:36.674Z,995.27
2023-03-08T07:47:36.617Z,995.28
2023-03-08T07:48:36.649Z,995.32
2023-03-08T07:49:36.589Z,995.31
2023-03-08T07:50:36.575Z,995.27
2023-03-08T07:51:36.599Z,995.27
2023-03-08T07:52:36.649Z,995.26
2023-03-08T07:53:36.555Z,995.27
2023-03-08T07:54:36.524Z,995.29
2023-03-08T07:55:36.518Z,995.26
2023-03-08T07:56:36.497Z,995.27
2023-03-08T07:57:36.558Z,995.31
2023-03-08T07:58:36.472Z,995.32
2023-03-08T07:59:36.460Z,995.32
2023-03-08T08:00:36.447Z,995.31
2023-03-08T08:01:36.434Z,995.32
2023-03-08T08:02:36.420Z,995.29
2023-03-08T08:03:36.499Z,995.31
2023-03-08T08:04:36.397Z,995.28
2023-03-08T08:05:36.456Z,995.33
2023-03-08T08:06:36.369Z,995.35
2023-03-08T08:07:36.358Z,995.32
2023-03-08T08:08:36.352Z,995.29
2023-03-08T08:09:36.330Z,995.26
2023-03-08T08:10:36.317Z,995.32
2023-03-08T08:11:36.304Z,995.29
2023-03-08T08:12:36.290Z,995.29
2023-03-08T08:13:36.309Z,995.28
2023-03-08T08:14:36.271Z,995.27
2023-03-08T08:15:36.250Z,995.30
2023-03-08T08:16:36.267Z,995.34
2023-03-08T08:17:36.234Z,995.31
2023-03-08T08:18:36.209Z,995.37
2023-03-08T08:19:36.201Z,995.32
2023-03-08T08:20:36.187Z,995.26
2023-03-08T08:21:36.176Z,995.26
2023-03-08T08:22:36.157Z,995.31
2023-03-08T08:23:36.146Z,995.33
2023-03-08T08:24:36.133Z,995.33
2023-03-08T08:25:36.120Z,995.40
2023-03-08T08:26:36.111Z,995.37
2023-03-08T08:27:36.098Z,995.42
2023-03-08T08:28:36.079Z,995.35
2023-03-08T08:29:36.069Z,995.31
2023-03-08T08:30:36.054Z,995.31
2023-03-08T08:31:36.105Z,995.32
2023-03-08T08:32:36.142Z,995.31
2023-03-08T08:33:36.018Z,995.26
2023-03-08T08:34:36.007Z,995.23
2023-03-08T08:35:43.103Z,995.21
2023-03-08T08:36:35.979Z,995.20
2023-03-08T08:37:35.966Z,995.18
2023-03-08T08:38:35.950Z,995.21
2023-03-08T08:39:35.942Z,995.23
2023-03-08T08:40:35.931Z,995.21
2023-03-08T08:41:35.918Z,995.24
2023-03-08T08:42:35.913Z,995.25
2023-03-08T08:43:35.893Z,995.25
2023-03-08T08:44:35.885Z,995.26
2023-03-08T08:45:35.884Z,995.28
2023-03-08T08:46:35.855Z,995.25
2023-03-08T08:47:35.843Z,995.25
2023-03-08T08:48:35.830Z,995.24
2023-03-08T08:49:35.824Z,995.23
2023-03-08T08:50:35.807Z,995.19
2023-03-08T08:51:35.790Z,995.18
2023-03-08T08:52:35.825Z,995.06
2023-03-08T08:53:35.777Z,995.06
2023-03-08T08:54:35.799Z,995.06
2023-03-08T08:55:35.735Z,995.08
2023-03-08T08:56:35.729Z,995.05
2023-03-08T08:57:35.716Z,994.99
2023-03-08T08:58:35.763Z,995.01
2023-03-08T08:59:35.698Z,994.96
2023-03-08T09:00:35.681Z,994.98
2023-03-08T09:01:35.697Z,994.95
2023-03-08T09:02:35.695Z,994.90
2023-03-08T09:03:35.682Z,994.94
2023-03-08T09:04:35.780Z,994.89
2023-03-08T09:05:35.617Z,994.91
2023-03-08T09:06:35.632Z,994.91
2023-03-08T09:07:38.121Z,994.91
2023-03-08T09:08:35.592Z,994.85
2023-03-08T09:09:35.569Z,994.87
2023-03-08T09:10:35.556Z,994.85
2023-03-08T09:11:42.190Z,994.87
2023-03-08T09:12:35.573Z,994.89
2023-03-08T09:13:35.524Z,994.85
2023-03-08T09:14:35.510Z,994.84
2023-03-08T09:15:35.506Z,994.86
2023-03-08T09:16:35.530Z,994.82
2023-03-08T09:17:35.471Z,994.83
2023-03-08T09:18:35.460Z,994.83
2023-03-08T09:19:35.459Z,994.86
2023-03-08T09:20:35.438Z,994.84
2023-03-08T09:21:35.428Z,994.89
2023-03-08T09:22:35.416Z,994.88
2023-03-08T09:23:35.402Z,994.87
2023-03-08T09:24:35.388Z,994.97
2023-03-08T09:25:35.379Z,994.89
2023-03-08T09:26:35.367Z,994.88
2023-03-08T09:27:35.355Z,994.87
2023-03-08T09:28:35.366Z,994.88
2023-03-08T09:29:35.333Z,994.83
2023-03-08T09:30:35.332Z,994.87
2023-03-08T09:31:35.353Z,994.87
2023-03-08T09:32:35.333Z,994.85
2023-03-08T09:33:35.289Z,994.85
2023-03-08T09:34:35.278Z,994.83
2023-03-08T09:35:35.303Z,994.85
2023-03-08T09:36:35.250Z,994.87
2023-03-08T09:37:35.240Z,994.85
2023-03-08T09:38:35.229Z,994.86
2023-03-08T09:39:35.217Z,994.87
2023-03-08T09:40:35.209Z,994.84
2023-03-08T09:41:35.197Z,994.79
2023-03-08T09:42:35.187Z,994.79
2023-03-08T09:43:35.169Z,994.81
2023-03-08T09:44:35.159Z,994.78
2023-03-08T09:45:35.146Z,994.78
2023-03-08T09:46:35.144Z,994.77
2023-03-08T09:47:35.163Z,994.81
2023-03-08T09:48:35.114Z,994.78
2023-03-08T09:49:35.104Z,994.75
2023-03-08T09:50:35.088Z,994.76
2023-03-08T09:51:35.078Z,994.74
2023-03-08T09:52:35.063Z,994.76
2023-03-08T09:53:35.077Z,994.75
2023-03-08T09:54:35.040Z,994.72
2023-03-08T09:55:35.039Z,994.72
2023-03-08T09:56:35.017Z,994.72
2023-03-08T09:57:35.099Z,994.68
2023-03-08T09:58:34.994Z,994.64
2023-03-08T09:59:34.994Z,994.65
2023-03-08T10:00:35.029Z,994.65
2023-03-08T10:01:34.956Z,994.59
2023-03-08T10:02:35.005Z,994.54
2023-03-08T10:03:36.401Z,994.55
2023-03-08T10:04:34.990Z,994.55
2023-03-08T10:05:34.908Z,994.54
2023-03-08T10:06:34.897Z,994.52
2023-03-08T10:07:34.895Z,994.52
2023-03-08T10:08:34.874Z,994.52
2023-03-08T10:09:34.862Z,994.50
2023-03-08T10:10:34.852Z,994.50
2023-03-08T10:11:34.840Z,994.49
2023-03-08T10:12:34.826Z,994.51
2023-03-08T10:13:34.833Z,994.47
2023-03-08T10:14:34.846Z,994.41
2023-03-08T10:15:34.805Z,994.41
2023-03-08T10:16:34.837Z,994.34
2023-03-08T10:17:34.773Z,994.39
2023-03-08T10:18:34.763Z,994.34
2023-03-08T10:19:34.752Z,994.37
2023-03-08T10:20:34.738Z,994.40
2023-03-08T10:21:34.755Z,994.42
2023-03-08T10:22:34.713Z,994.42
2023-03-08T10:23:34.705Z,994.40
2023-03-08T10:24:34.692Z,994.40
2023-03-08T10:25:34.698Z,994.41
2023-03-08T10:26:34.700Z,994.39
2023-03-08T10:27:34.692Z,994.38
2023-03-08T10:28:34.649Z,994.38
2023-03-08T10:29:34.637Z,994.37
2023-03-08T10:30:34.665Z,994.34
2023-03-08T10:31:34.619Z,994.34
2023-03-08T10:32:34.671Z,994.35
2023-03-08T10:33:34.599Z,994.34
2023-03-08T10:34:34.587Z,994.34
2023-03-08T10:35:34.660Z,994.30
2023-03-08T10:36:34.567Z,994.30
2023-03-08T10:37:34.588Z,994.28
2023-03-08T10:38:34.561Z,994.30
2023-03-08T10:39:34.530Z,994.30
2023-03-08T10:40:34.523Z,994.27
2023-03-08T10:41:34.512Z,994.30
2023-03-08T10:42:34.501Z,994.31
2023-03-08T10:43:34.493Z,994.29
2023-03-08T10:44:34.485Z,994.32
2023-03-08T10:45:34.468Z,994.27
2023-03-08T10:46:34.511Z,994.25
2023-03-08T10:47:34.465Z,994.25
2023-03-08T10:48:34.435Z,994.23
2023-03-08T10:49:34.429Z,994.21
2023-03-08T10:50:34.415Z,994.19
2023-03-08T10:51:34.403Z,994.20
2023-03-08T10:52:34.397Z,994.20
2023-03-08T10:53:34.390Z,994.17
2023-03-08T10:54:34.370Z,994.19
2023-03-08T10:55:34.368Z,994.17
2023-03-08T10:56:34.385Z,994.14
2023-03-08T10:57:34.359Z,994.15
2023-03-08T10:58:34.329Z,994.14
2023-03-08T10:59:34.322Z,994.12
2023-03-08T11:00:34.311Z,994.13
2023-03-08T11:01:34.296Z,994.12
2023-03-08T11:02:34.290Z,994.12
2023-03-08T11:03:34.288Z,994.08
2023-03-08T11:04:34.297Z,994.05
2023-03-08T11:05:34.255Z,994.02
2023-03-08T11:06:34.295Z,994.01
2023-03-08T11:07:34.233Z,993.96
2023-03-08T11:08:34.221Z,993.97
2023-03-08T11:09:34.215Z,993.96
2023-03-08T11:10:34.216Z,993.91
2023-03-08T11:11:34.207Z,993.91
2023-03-08T11:12:34.259Z,993.90
2023-03-08T11:13:34.174Z,993.90
2023-03-08T11:14:34.229Z,993.85
2023-03-08T11:15:34.162Z,993.92
2023-03-08T11:16:34.136Z,993.89
2023-03-08T11:17:34.128Z,993.93
2023-03-08T11:18:34.138Z,993.91
2023-03-08T11:19:34.108Z,993.88
2023-03-08T11:20:34.099Z,993.83
2023-03-08T11:21:34.105Z,993.79
2023-03-08T11:22:34.076Z,993.83
2023-03-08T11:23:34.067Z,993.80
2023-03-08T11:24:34.061Z,993.79
2023-03-08T11:25:34.106Z,993.82
2023-03-08T11:26:34.056Z,993.75
2023-03-08T11:27:34.063Z,993.76
2023-03-08T11:28:34.038Z,993.71
2023-03-08T11:29:34.014Z,993.67
2023-03-08T11:30:34.005Z,993.67
2023-03-08T11:31:34.105Z,993.63
2023-03-08T11:32:34.030Z,993.62
2023-03-08T11:33:34.163Z,993.59
2023-03-08T11:34:33.952Z,993.57
2023-03-08T11:35:33.976Z,993.56
2023-03-08T11:36:33.944Z,993.50
2023-03-08T11:37:33.921Z,993.50
2023-03-08T11:38:33.932Z,993.49
2023-03-08T11:39:33.905Z,993.50
2023-03-08T11:40:33.906Z,993.52
2023-03-08T11:41:33.896Z,993.47
2023-03-08T11:42:33.888Z,993.46
2023-03-08T11:43:33.859Z,993.46
2023-03-08T11:44:33.858Z,993.43
2023-03-08T11:45:33.839Z,993.39
2023-03-08T11:46:33.853Z,993.36
2023-03-08T11:47:33.817Z,993.36
2023-03-08T11:48:33.832Z,993.37
2023-03-08T11:49:33.800Z,993.37
2023-03-08T11:50:33.796Z,993.35
2023-03-08T11:51:33.780Z,993.33
2023-03-08T11:52:33.764Z,993.35
2023-03-08T11:53:33.756Z,993.33
2023-03-08T11:54:33.741Z,993.32
2023-03-08T11:55:33.799Z,993.25
2023-03-08T11:56:33.737Z,993.33
2023-03-08T11:57:33.712Z,993.26
2023-03-08T11:58:33.702Z,993.26
2023-03-08T11:59:33.699Z,993.24
2023-03-08T12:00:33.684Z,993.25
2023-03-08T12:01:33.787Z,993.20
2023-03-08T12:02:33.668Z,993.18
2023-03-08T12:03:33.737Z,993.19
2023-03-08T12:04:33.815Z,993.14
2023-03-08T12:05:33.636Z,993.14
2023-03-08T12:06:33.935Z,993.11
2023-03-08T12:07:33.633Z,993.12
2023-03-08T12:08:33.594Z,993.10
2023-03-08T12:09:33.585Z,993.15
2023-03-08T12:10:33.570Z,993.16
2023-03-08T12:11:33.559Z,993.15
2023-03-08T12:12:33.552Z,993.16
2023-03-08T12:13:33.554Z,993.17
2023-03-08T12:14:33.536Z,993.17
2023-03-08T12:15:33.568Z,993.11
2023-03-08T12:16:33.590Z,993.09
2023-03-08T12:17:33.504Z,993.10
2023-03-08T12:18:33.501Z,993.12
2023-03-08T12:19:33.484Z,993.07
2023-03-08T12:20:33.462Z,993.06
2023-03-08T12:21:33.451Z,993.04
2023-03-08T12:22:33.569Z,993.04
2023-03-08T12:23:33.468Z,993.05
2023-03-08T12:24:33.453Z,993.01
2023-03-08T12:25:33.410Z,993.00
2023-03-08T12:26:33.424Z,993.00
2023-03-08T12:27:33.455Z,992.99
2023-03-08T12:28:33.452Z,992.97